Time,TemperatureF,DewpointF,PressureIn,WindDirection,WindDirectionDegrees,WindSpeedMPH,WindSpeedGustMPH,Humidity,HourlyPrecipIn,Conditions,Clouds,dailyrainin,SoftwareType,DateUTC
2013-06-10 00:01:00,65.0,-23.0,27.90,South,180,0.0,4.0,0,0.12,,,0.00,Rainwise IP-100,2013-06-10 04:01:00,
2013-06-10 00:06:00,65.0,-23.0,27.90,ESE,112,0.0,4.0,0,0.06,,,0.00,Rainwise IP-100,2013-06-10 04:06:00,
2013-06-10 00:11:00,66.0,-23.0,27.90,ESE,112,3.0,3.0,0,0.00,,,0.00,Rainwise IP-100,2013-06-10 04:11:00,
2013-06-10 00:16:00,66.0,-23.0,27.90,ESE,112,0.0,5.0,0,0.00,,,0.00,Rainwise IP-100,2013-06-10 04:16:00,
2013-06-10 00:21:00,66.0,-23.0,27.89,NNW,337,0.0,3.0,0,0.00,,,0.01,Rainwise IP-100,2013-06-10 04:21:00,
2013-06-10 00:26:00,66.0,-23.0,27.89,SSW,202,0.0,4.0,0,0.06,,,0.01,Rainwise IP-100,2013-06-10 04:26:00,
2013-06-10 00:31:00,66.0,-23.0,27.89,North,360,0.0,3.0,0,0.06,,,0.01,Rainwise IP-100,2013-06-10 04:31:00,
2013-06-10 00:36:00,66.0,-23.0,27.89,South,180,0.0,3.0,0,0.06,,,0.02,Rainwise IP-100,2013-06-10 04:36:00,
2013-06-10 00:41:00,66.0,-23.0,27.89,SSE,157,0.0,3.0,0,0.06,,,0.02,Rainwise IP-100,2013-06-10 04:41:00,
2013-06-10 00:46:00,66.0,-23.0,27.89,SSE,157,1.0,5.0,0,0.00,,,0.02,Rainwise IP-100,2013-06-10 04:46:00,
2013-06-10 00:51:00,66.0,-23.0,27.88,North,360,0.0,3.0,0,0.00,,,0.02,Rainwise IP-100,2013-06-10 04:51:00,
2013-06-10 00:56:00,66.0,-23.0,27.88,SSE,157,1.0,4.0,0,0.00,,,0.02,Rainwise IP-100,2013-06-10 04:56:00,
2013-06-10 01:01:00,66.0,-23.0,27.88,ESE,112,2.0,4.0,0,0.06,,,0.03,Rainwise IP-100,2013-06-10 05:01:00,
2013-06-10 01:06:00,66.0,-23.0,27.88,South,180,0.0,3.0,0,0.06,,,0.03,Rainwise IP-100,2013-06-10 05:06:00,
2013-06-10 01:11:00,66.0,-23.0,27.88,SE,135,1.0,5.0,0,0.00,,,0.03,Rainwise IP-100,2013-06-10 05:11:00,
2013-06-10 01:16:00,66.0,-23.0,27.88,ENE,67,0.0,2.0,0,0.00,,,0.03,Rainwise IP-100,2013-06-10 05:16:00,
2013-06-10 01:21:00,66.0,-23.0,27.88,SE,135,0.0,4.0,0,0.00,,,0.03,Rainwise IP-100,2013-06-10 05:21:00,
2013-06-10 01:26:00,66.0,-23.0,27.87,SSE,157,0.0,4.0,0,0.24,,,0.09,Rainwise IP-100,2013-06-10 05:26:00,
2013-06-10 01:31:00,66.0,-23.0,27.87,SE,135,0.0,3.0,0,0.72,,,0.16,Rainwise IP-100,2013-06-10 05:31:00,
2013-06-10 01:36:00,66.0,-23.0,27.87,NE,45,0.0,1.0,0,1.20,,,0.28,Rainwise IP-100,2013-06-10 05:36:00,
2013-06-10 01:41:00,66.0,-23.0,27.86,NE,45,0.0,0.0,0,0.90,,,0.30,Rainwise IP-100,2013-06-10 05:41:00,
2013-06-10 01:46:00,66.0,-23.0,27.86,NE,45,0.0,0.0,0,0.24,,,0.32,Rainwise IP-100,2013-06-10 05:46:00,
2013-06-10 01:51:00,66.0,-23.0,27.86,NE,45,0.0,0.0,0,0.18,,,0.33,Rainwise IP-100,2013-06-10 05:51:00,
2013-06-10 01:56:00,66.0,-23.0,27.86,SSE,157,0.0,3.0,0,0.42,,,0.39,Rainwise IP-100,2013-06-10 05:56:00,
2013-06-10 02:01:00,66.0,-23.0,27.86,SSE,157,0.0,0.0,0,0.60,,,0.44,Rainwise IP-100,2013-06-10 06:01:00,
2013-06-10 02:06:00,66.0,-23.0,27.86,SSE,157,0.0,6.0,0,0.66,,,0.50,Rainwise IP-100,2013-06-10 06:06:00,
2013-06-10 02:11:00,66.0,-23.0,27.86,North,360,0.0,3.0,0,0.72,,,0.55,Rainwise IP-100,2013-06-10 06:11:00,
2013-06-10 02:16:00,66.0,-23.0,27.86,WSW,247,0.0,3.0,0,0.48,,,0.57,Rainwise IP-100,2013-06-10 06:16:00,
2013-06-10 02:21:00,66.0,-23.0,27.86,WSW,247,0.0,10.0,0,0.30,,,0.61,Rainwise IP-100,2013-06-10 06:21:00,
2013-06-10 02:26:00,66.0,-23.0,27.86,South,180,2.0,9.0,0,0.36,,,0.63,Rainwise IP-100,2013-06-10 06:26:00,
2013-06-10 02:31:00,66.0,-23.0,27.86,SE,135,3.0,7.0,0,0.18,,,0.63,Rainwise IP-100,2013-06-10 06:31:00,
2013-06-10 02:36:00,66.0,-23.0,27.85,SW,225,4.0,6.0,0,0.00,,,0.63,Rainwise IP-100,2013-06-10 06:36:00,
2013-06-10 02:41:00,66.0,-23.0,27.85,SW,225,0.0,4.0,0,0.00,,,0.63,Rainwise IP-100,2013-06-10 06:41:00,
2013-06-10 02:46:00,65.0,-23.0,27.85,South,180,3.0,6.0,0,0.00,,,0.63,Rainwise IP-100,2013-06-10 06:46:00,
2013-06-10 02:51:00,66.0,-23.0,27.85,SSW,202,0.0,5.0,0,0.06,,,0.64,Rainwise IP-100,2013-06-10 06:51:00,
2013-06-10 02:56:00,66.0,-23.0,27.85,SSE,157,4.0,7.0,0,0.06,,,0.64,Rainwise IP-100,2013-06-10 06:56:00,
2013-06-10 03:01:00,66.0,-23.0,27.84,SW,225,0.0,5.0,0,0.00,,,0.64,Rainwise IP-100,2013-06-10 07:01:00,
2013-06-10 03:06:00,66.0,-23.0,27.84,SSW,202,1.0,6.0,0,0.00,,,0.64,Rainwise IP-100,2013-06-10 07:06:00,
2013-06-10 03:11:00,66.0,-23.0,27.84,SSW,202,0.0,2.0,0,0.00,,,0.64,Rainwise IP-100,2013-06-10 07:11:00,
2013-06-10 03:16:00,65.0,-23.0,27.84,SSE,157,3.0,3.0,0,0.00,,,0.64,Rainwise IP-100,2013-06-10 07:16:00,
2013-06-10 03:21:00,66.0,-23.0,27.84,WSW,247,2.0,6.0,0,0.00,,,0.64,Rainwise IP-100,2013-06-10 07:21:00,
2013-06-10 03:26:00,66.0,-23.0,27.84,SW,225,0.0,4.0,0,0.00,,,0.64,Rainwise IP-100,2013-06-10 07:26:00,
2013-06-10 03:31:00,65.0,-23.0,27.84,SSE,157,0.0,2.0,0,0.00,,,0.64,Rainwise IP-100,2013-06-10 07:31:00,
2013-06-10 03:36:00,65.0,-23.0,27.84,SSW,202,0.0,4.0,0,0.00,,,0.64,Rainwise IP-100,2013-06-10 07:36:00,
2013-06-10 03:41:00,66.0,-23.0,27.84,SW,225,3.0,3.0,0,0.06,,,0.65,Rainwise IP-100,2013-06-10 07:41:00,
2013-06-10 03:46:00,65.0,-23.0,27.84,ESE,112,0.0,3.0,0,0.06,,,0.65,Rainwise IP-100,2013-06-10 07:46:00,
2013-06-10 03:51:00,65.0,-23.0,27.84,ESE,112,0.0,1.0,0,0.00,,,0.65,Rainwise IP-100,2013-06-10 07:51:00,
2013-06-10 03:56:00,65.0,-23.0,27.84,ESE,112,0.0,0.0,0,0.00,,,0.65,Rainwise IP-100,2013-06-10 07:56:00,
2013-06-10 04:01:00,65.0,-23.0,27.84,ESE,112,0.0,0.0,0,0.00,,,0.65,Rainwise IP-100,2013-06-10 08:01:00,
2013-06-10 04:06:00,65.0,-23.0,27.84,ESE,112,0.0,0.0,0,0.06,,,0.66,Rainwise IP-100,2013-06-10 08:06:00,
2013-06-10 04:11:00,65.0,-23.0,27.83,ESE,112,0.0,0.0,0,0.06,,,0.66,Rainwise IP-100,2013-06-10 08:11:00,
2013-06-10 04:16:00,65.0,-23.0,27.83,SSW,202,0.0,2.0,0,0.00,,,0.66,Rainwise IP-100,2013-06-10 08:16:00,
2013-06-10 04:21:00,65.0,-23.0,27.84,SSW,202,0.0,0.0,0,0.00,,,0.66,Rainwise IP-100,2013-06-10 08:21:00,
2013-06-10 04:26:00,65.0,-23.0,27.84,SSE,157,4.0,5.0,0,0.00,,,0.66,Rainwise IP-100,2013-06-10 08:26:00,
2013-06-10 04:31:00,66.0,-23.0,27.84,SSW,202,2.0,5.0,0,0.00,,,0.66,Rainwise IP-100,2013-06-10 08:31:00,
2013-06-10 04:36:00,65.0,-23.0,27.84,SSW,202,1.0,5.0,0,0.00,,,0.66,Rainwise IP-100,2013-06-10 08:36:00,
2013-06-10 04:41:00,66.0,-23.0,27.83,SE,135,2.0,6.0,0,0.00,,,0.66,Rainwise IP-100,2013-06-10 08:41:00,
2013-06-10 04:46:00,65.0,-23.0,27.83,South,180,0.0,3.0,0,0.00,,,0.66,Rainwise IP-100,2013-06-10 08:46:00,
2013-06-10 04:51:00,66.0,-23.0,27.82,SW,225,2.0,6.0,0,0.00,,,0.66,Rainwise IP-100,2013-06-10 08:51:00,
2013-06-10 04:56:00,65.0,-23.0,27.82,SSE,157,1.0,9.0,0,0.00,,,0.66,Rainwise IP-100,2013-06-10 08:56:00,
2013-06-10 05:01:00,66.0,-23.0,27.83,South,180,3.0,6.0,0,0.00,,,0.66,Rainwise IP-100,2013-06-10 09:01:00,
2013-06-10 05:06:00,66.0,-23.0,27.83,NE,45,0.0,5.0,0,0.00,,,0.66,Rainwise IP-100,2013-06-10 09:06:00,
2013-06-10 05:11:00,66.0,-23.0,27.82,SSE,157,1.0,5.0,0,0.00,,,0.66,Rainwise IP-100,2013-06-10 09:11:00,
2013-06-10 05:16:00,65.0,-23.0,27.82,SSE,157,3.0,4.0,0,0.00,,,0.66,Rainwise IP-100,2013-06-10 09:16:00,
2013-06-10 05:21:00,66.0,-23.0,27.83,South,180,0.0,5.0,0,0.00,,,0.66,Rainwise IP-100,2013-06-10 09:21:00,
2013-06-10 05:26:00,66.0,-23.0,27.83,SSE,157,0.0,5.0,0,0.00,,,0.66,Rainwise IP-100,2013-06-10 09:26:00,
2013-06-10 05:31:00,66.0,-23.0,27.84,NW,315,0.0,3.0,0,0.00,,,0.66,Rainwise IP-100,2013-06-10 09:31:00,
2013-06-10 05:36:00,65.0,-23.0,27.84,SSW,202,0.0,6.0,0,0.00,,,0.66,Rainwise IP-100,2013-06-10 09:36:00,
2013-06-10 05:41:00,65.0,-23.0,27.84,NNE,22,0.0,3.0,0,0.00,,,0.66,Rainwise IP-100,2013-06-10 09:41:00,
2013-06-10 05:46:00,65.0,-23.0,27.84,SW,225,2.0,3.0,0,0.00,,,0.66,Rainwise IP-100,2013-06-10 09:46:00,
2013-06-10 05:51:00,65.0,-23.0,27.84,SSE,157,0.0,6.0,0,0.00,,,0.66,Rainwise IP-100,2013-06-10 09:51:00,
2013-06-10 05:56:00,65.0,-23.0,27.84,NNW,337,1.0,5.0,0,0.00,,,0.66,Rainwise IP-100,2013-06-10 09:56:00,
2013-06-10 06:01:00,65.0,-23.0,27.83,SW,225,0.0,3.0,0,0.00,,,0.66,Rainwise IP-100,2013-06-10 10:01:00,
2013-06-10 06:06:00,65.0,-23.0,27.83,South,180,0.0,5.0,0,0.00,,,0.66,Rainwise IP-100,2013-06-10 10:06:00,
2013-06-10 06:11:00,65.0,-23.0,27.83,WNW,292,1.0,3.0,0,0.00,,,0.66,Rainwise IP-100,2013-06-10 10:11:00,
2013-06-10 06:16:00,65.0,-23.0,27.83,SE,135,3.0,4.0,0,0.00,,,0.66,Rainwise IP-100,2013-06-10 10:16:00,
2013-06-10 06:21:00,65.0,-23.0,27.83,WSW,247,1.0,5.0,0,0.00,,,0.66,Rainwise IP-100,2013-06-10 10:21:00,
2013-06-10 06:26:00,65.0,-23.0,27.83,South,180,1.0,6.0,0,0.06,,,0.67,Rainwise IP-100,2013-06-10 10:26:00,
2013-06-10 06:31:00,65.0,-23.0,27.84,SSW,202,0.0,3.0,0,0.06,,,0.67,Rainwise IP-100,2013-06-10 10:31:00,
2013-06-10 06:36:00,65.0,-23.0,27.84,SE,135,0.0,2.0,0,0.00,,,0.67,Rainwise IP-100,2013-06-10 10:36:00,
2013-06-10 06:41:00,65.0,-23.0,27.83,NW,315,0.0,4.0,0,0.00,,,0.67,Rainwise IP-100,2013-06-10 10:41:00,
2013-06-10 06:46:00,65.0,-23.0,27.83,South,180,0.0,2.0,0,0.00,,,0.67,Rainwise IP-100,2013-06-10 10:46:00,
2013-06-10 06:51:00,65.0,-23.0,27.84,SSW,202,2.0,3.0,0,0.00,,,0.67,Rainwise IP-100,2013-06-10 10:51:00,
2013-06-10 06:56:00,64.0,-23.0,27.84,SSE,157,0.0,5.0,0,0.00,,,0.67,Rainwise IP-100,2013-06-10 10:56:00,
2013-06-10 07:01:00,65.0,-23.0,27.84,WNW,292,0.0,4.0,0,0.00,,,0.67,Rainwise IP-100,2013-06-10 11:01:00,
2013-06-10 07:06:00,64.0,-23.0,27.84,WNW,292,0.0,2.0,0,0.00,,,0.67,Rainwise IP-100,2013-06-10 11:06:00,
2013-06-10 07:11:00,65.0,-23.0,27.84,South,180,3.0,3.0,0,0.00,,,0.67,Rainwise IP-100,2013-06-10 11:11:00,
2013-06-10 07:16:00,65.0,-23.0,27.84,South,180,0.0,6.0,0,0.00,,,0.67,Rainwise IP-100,2013-06-10 11:16:00,
2013-06-10 07:21:00,65.0,-23.0,27.84,South,180,0.0,0.0,0,0.06,,,0.68,Rainwise IP-100,2013-06-10 11:21:00,
2013-06-10 07:26:00,65.0,-23.0,27.84,NW,315,0.0,0.0,0,0.06,,,0.68,Rainwise IP-100,2013-06-10 11:26:00,
2013-06-10 07:31:00,65.0,-23.0,27.84,SSW,202,0.0,2.0,0,0.00,,,0.68,Rainwise IP-100,2013-06-10 11:31:00,
2013-06-10 07:36:00,65.0,-23.0,27.84,SW,225,2.0,3.0,0,0.00,,,0.68,Rainwise IP-100,2013-06-10 11:36:00,
2013-06-10 07:41:00,65.0,-23.0,27.85,SE,135,1.0,4.0,0,0.00,,,0.68,Rainwise IP-100,2013-06-10 11:41:00,
2013-06-10 07:46:00,66.0,-23.0,27.85,SE,135,5.0,5.0,0,0.00,,,0.68,Rainwise IP-100,2013-06-10 11:46:00,
2013-06-10 07:51:00,66.0,-23.0,27.84,West,270,0.0,7.0,0,0.00,,,0.68,Rainwise IP-100,2013-06-10 11:51:00,
2013-06-10 07:56:00,66.0,-23.0,27.84,ESE,112,0.0,3.0,0,0.00,,,0.68,Rainwise IP-100,2013-06-10 11:56:00,
2013-06-10 08:01:00,66.0,-23.0,27.84,ESE,112,0.0,3.0,0,0.00,,,0.68,Rainwise IP-100,2013-06-10 12:01:00,
2013-06-10 08:06:00,66.0,-23.0,27.84,ESE,112,0.0,3.0,0,0.00,,,0.68,Rainwise IP-100,2013-06-10 12:06:00,
2013-06-10 08:15:00,66.0,-23.0,27.84,South,180,0.0,2.0,0,0.00,,,0.68,Rainwise IP-100,2013-06-10 12:15:00,
2013-06-10 08:20:00,66.0,-23.0,27.84,SW,225,0.0,1.0,0,0.00,,,0.68,Rainwise IP-100,2013-06-10 12:20:00,
2013-06-10 08:29:00,67.0,-23.0,27.84,SSE,157,0.0,1.0,0,0.00,,,0.68,Rainwise IP-100,2013-06-10 12:29:00,
2013-06-10 08:34:00,67.0,-23.0,27.84,ESE,112,0.0,1.0,0,0.00,,,0.68,Rainwise IP-100,2013-06-10 12:34:00,
2013-06-10 08:39:00,67.0,-23.0,27.84,ESE,112,0.0,2.0,0,0.00,,,0.68,Rainwise IP-100,2013-06-10 12:39:00,
2013-06-10 08:44:00,67.0,-23.0,27.84,East,90,0.0,4.0,0,0.00,,,0.68,Rainwise IP-100,2013-06-10 12:44:00,
2013-06-10 08:49:00,67.0,-23.0,27.84,SSW,202,3.0,4.0,0,0.00,,,0.68,Rainwise IP-100,2013-06-10 12:49:00,
2013-06-10 08:55:00,67.0,-23.0,27.85,SSE,157,0.0,5.0,0,0.00,,,0.68,Rainwise IP-100,2013-06-10 12:55:00,
2013-06-10 08:59:00,67.0,-23.0,27.85,South,180,0.0,4.0,0,0.00,,,0.68,Rainwise IP-100,2013-06-10 12:59:00,
2013-06-10 09:04:00,68.0,-23.0,27.84,ESE,112,0.0,3.0,0,0.00,,,0.68,Rainwise IP-100,2013-06-10 13:04:00,
2013-06-10 09:09:00,68.0,-23.0,27.84,ESE,112,0.0,3.0,0,0.00,,,0.68,Rainwise IP-100,2013-06-10 13:09:00,
2013-06-10 09:15:00,69.0,-23.0,27.84,SSW,202,0.0,3.0,0,0.00,,,0.68,Rainwise IP-100,2013-06-10 13:15:00,
2013-06-10 09:20:00,70.0,-23.0,27.84,West,270,0.0,3.0,0,0.00,,,0.68,Rainwise IP-100,2013-06-10 13:20:00,
2013-06-10 09:25:00,71.0,-23.0,27.84,East,90,0.0,5.0,0,0.00,,,0.68,Rainwise IP-100,2013-06-10 13:25:00,
2013-06-10 09:30:00,70.0,-23.0,27.84,ESE,112,1.0,4.0,0,0.00,,,0.68,Rainwise IP-100,2013-06-10 13:30:00,
2013-06-10 09:35:00,70.0,-23.0,27.84,WSW,247,3.0,6.0,0,0.00,,,0.68,Rainwise IP-100,2013-06-10 13:35:00,
2013-06-10 09:40:00,71.0,-23.0,27.84,SSE,157,2.0,5.0,0,0.00,,,0.68,Rainwise IP-100,2013-06-10 13:40:00,
2013-06-10 09:45:00,71.0,-23.0,27.84,ESE,112,0.0,4.0,0,0.00,,,0.68,Rainwise IP-100,2013-06-10 13:45:00,
2013-06-10 09:50:00,72.0,-23.0,27.84,SSW,202,3.0,3.0,0,0.00,,,0.68,Rainwise IP-100,2013-06-10 13:50:00,
2013-06-10 09:55:00,72.0,-23.0,27.84,SW,225,2.0,3.0,0,0.00,,,0.68,Rainwise IP-100,2013-06-10 13:55:00,
2013-06-10 10:00:00,72.0,-23.0,27.84,West,270,0.0,5.0,0,0.00,,,0.68,Rainwise IP-100,2013-06-10 14:00:00,
2013-06-10 10:05:00,72.0,-23.0,27.84,SE,135,0.0,4.0,0,0.00,,,0.68,Rainwise IP-100,2013-06-10 14:05:00,
2013-06-10 10:10:00,71.0,-23.0,27.84,SSE,157,5.0,5.0,0,0.00,,,0.68,Rainwise IP-100,2013-06-10 14:10:00,
2013-06-10 10:15:00,71.0,-23.0,27.84,East,90,0.0,5.0,0,0.00,,,0.68,Rainwise IP-100,2013-06-10 14:15:00,
2013-06-10 10:20:00,71.0,-23.0,27.84,SW,225,2.0,3.0,0,0.00,,,0.68,Rainwise IP-100,2013-06-10 14:20:00,
2013-06-10 10:25:00,71.0,-23.0,27.84,ESE,112,2.0,4.0,0,0.00,,,0.68,Rainwise IP-100,2013-06-10 14:25:00,
2013-06-10 10:30:00,71.0,-23.0,27.84,SW,225,5.0,6.0,0,0.00,,,0.68,Rainwise IP-100,2013-06-10 14:30:00,
2013-06-10 10:35:00,71.0,-23.0,27.84,SSE,157,0.0,6.0,0,0.00,,,0.68,Rainwise IP-100,2013-06-10 14:35:00,
2013-06-10 10:40:00,71.0,-23.0,27.84,South,180,0.0,3.0,0,0.00,,,0.68,Rainwise IP-100,2013-06-10 14:40:00,
2013-06-10 10:45:00,70.0,-23.0,27.83,SSW,202,2.0,7.0,0,0.00,,,0.68,Rainwise IP-100,2013-06-10 14:45:00,
2013-06-10 10:50:00,70.0,-23.0,27.83,SW,225,2.0,6.0,0,0.00,,,0.68,Rainwise IP-100,2013-06-10 14:50:00,
2013-06-10 10:55:00,71.0,-23.0,27.83,South,180,0.0,6.0,0,0.00,,,0.68,Rainwise IP-100,2013-06-10 14:55:00,
2013-06-10 11:00:00,71.0,-23.0,27.83,WSW,247,3.0,3.0,0,0.00,,,0.68,Rainwise IP-100,2013-06-10 15:00:00,
2013-06-10 11:05:00,71.0,-23.0,27.83,SSW,202,0.0,5.0,0,0.00,,,0.68,Rainwise IP-100,2013-06-10 15:05:00,
2013-06-10 11:10:00,71.0,-23.0,27.83,ESE,112,4.0,8.0,0,0.00,,,0.68,Rainwise IP-100,2013-06-10 15:10:00,
2013-06-10 11:15:00,72.0,-23.0,27.83,SSE,157,3.0,6.0,0,0.00,,,0.68,Rainwise IP-100,2013-06-10 15:15:00,
2013-06-10 11:20:00,72.0,-23.0,27.83,WSW,247,3.0,5.0,0,0.00,,,0.68,Rainwise IP-100,2013-06-10 15:20:00,
2013-06-10 11:25:00,72.0,-23.0,27.82,SSW,202,4.0,6.0,0,0.00,,,0.68,Rainwise IP-100,2013-06-10 15:25:00,
2013-06-10 11:30:00,72.0,-23.0,27.82,South,180,0.0,6.0,0,0.00,,,0.68,Rainwise IP-100,2013-06-10 15:30:00,
2013-06-10 11:35:00,72.0,-23.0,27.82,ESE,112,2.0,3.0,0,0.00,,,0.68,Rainwise IP-100,2013-06-10 15:35:00,
2013-06-10 11:39:00,73.0,-23.0,27.82,SSW,202,1.0,6.0,0,0.00,,,0.68,Rainwise IP-100,2013-06-10 15:39:00,
2013-06-10 11:44:00,74.0,-23.0,27.82,SE,135,0.0,3.0,0,0.00,,,0.68,Rainwise IP-100,2013-06-10 15:44:00,
2013-06-10 11:49:00,74.0,-23.0,27.82,SE,135,0.0,0.0,0,0.00,,,0.68,Rainwise IP-100,2013-06-10 15:49:00,
2013-06-10 11:55:00,75.0,42.0,27.82,SSW,202,4.0,4.0,31,0.00,,,0.68,Rainwise IP-100,2013-06-10 15:55:00,
2013-06-10 11:59:00,75.0,50.0,27.82,WSW,247,0.0,4.0,41,0.00,,,0.68,Rainwise IP-100,2013-06-10 15:59:00,
2013-06-10 12:04:00,75.0,50.0,27.82,WSW,247,0.0,0.0,41,0.00,,,0.68,Rainwise IP-100,2013-06-10 16:04:00,
2013-06-10 12:09:00,74.0,-23.0,27.82,East,90,0.0,2.0,0,0.00,,,0.68,Rainwise IP-100,2013-06-10 16:09:00,
2013-06-10 12:14:00,74.0,24.0,27.82,NNW,337,4.0,0.0,15,0.00,,,0.68,Rainwise IP-100,2013-06-10 16:14:00,
2013-06-10 12:19:00,73.0,47.0,27.82,South,180,0.0,6.0,39,0.00,,,0.68,Rainwise IP-100,2013-06-10 16:19:00,
2013-06-10 12:24:00,73.0,47.0,27.82,South,180,0.0,0.0,39,0.00,,,0.68,Rainwise IP-100,2013-06-10 16:24:00,
2013-06-10 12:29:00,73.0,47.0,27.82,South,180,0.0,0.0,39,0.00,,,0.68,Rainwise IP-100,2013-06-10 16:29:00,
2013-06-10 12:34:00,73.0,47.0,27.82,South,180,0.0,0.0,39,0.00,,,0.68,Rainwise IP-100,2013-06-10 16:34:00,
2013-06-10 12:39:00,72.0,-6.0,27.81,ESE,112,0.0,3.0,4,0.00,,,0.68,Rainwise IP-100,2013-06-10 16:39:00,
2013-06-10 12:44:00,70.0,-23.0,27.83,NW,315,3.0,5.0,0,0.06,,,0.69,Rainwise IP-100,2013-06-10 16:44:00,
2013-06-10 12:49:00,65.0,-23.0,27.83,NW,315,3.0,7.0,0,1.08,,,0.90,Rainwise IP-100,2013-06-10 16:49:00,
2013-06-10 12:54:00,63.0,-23.0,27.87,East,90,0.0,5.0,0,1.62,,,0.97,Rainwise IP-100,2013-06-10 16:54:00,
2013-06-10 12:59:00,62.0,-23.0,27.87,ESE,112,0.0,2.0,0,0.78,,,1.00,Rainwise IP-100,2013-06-10 16:59:00,
2013-06-10 13:04:00,62.0,-23.0,27.86,ESE,112,0.0,0.0,0,0.30,,,1.01,Rainwise IP-100,2013-06-10 17:04:00,
2013-06-10 13:09:00,62.0,-23.0,27.86,ESE,112,0.0,0.0,0,0.18,,,1.02,Rainwise IP-100,2013-06-10 17:09:00,
2013-06-10 13:14:00,62.0,-23.0,27.85,ESE,112,0.0,0.0,0,0.06,,,1.02,Rainwise IP-100,2013-06-10 17:14:00,
2013-06-10 13:19:00,62.0,-23.0,27.85,ESE,112,0.0,0.0,0,0.00,,,1.02,Rainwise IP-100,2013-06-10 17:19:00,
2013-06-10 13:24:00,62.0,-23.0,27.85,ESE,112,0.0,0.0,0,0.00,,,1.02,Rainwise IP-100,2013-06-10 17:24:00,
2013-06-10 13:29:00,62.0,-23.0,27.85,ESE,112,0.0,0.0,0,0.00,,,1.02,Rainwise IP-100,2013-06-10 17:29:00,
2013-06-10 13:34:00,62.0,-23.0,27.83,ESE,112,0.0,0.0,0,0.00,,,1.02,Rainwise IP-100,2013-06-10 17:34:00,
2013-06-10 13:39:00,62.0,-23.0,27.83,ESE,112,0.0,0.0,0,0.00,,,1.02,Rainwise IP-100,2013-06-10 17:39:00,
2013-06-10 13:44:00,62.0,-23.0,27.82,ESE,112,0.0,0.0,0,0.00,,,1.02,Rainwise IP-100,2013-06-10 17:44:00,
2013-06-10 13:49:00,62.0,-23.0,27.82,ESE,112,0.0,0.0,0,0.06,,,1.03,Rainwise IP-100,2013-06-10 17:49:00,
2013-06-10 13:55:00,62.0,-23.0,27.82,ESE,112,0.0,0.0,0,0.06,,,1.03,Rainwise IP-100,2013-06-10 17:55:00,
2013-06-10 15:34:00,76.0,-23.0,27.78,SSE,157,0.0,0.0,0,0.00,,,1.03,Rainwise IP-100,2013-06-10 19:34:00,
2013-06-10 15:40:00,75.0,50.0,27.78,ESE,112,0.0,0.0,41,0.00,,,1.03,Rainwise IP-100,2013-06-10 19:40:00,
2013-06-10 15:45:00,75.0,-23.0,27.79,SE,135,0.0,0.0,0,0.00,,,1.03,Rainwise IP-100,2013-06-10 19:45:00,
2013-06-10 15:50:00,75.0,71.0,27.79,SW,225,0.0,0.0,86,0.00,,,1.03,Rainwise IP-100,2013-06-10 19:50:00,
2013-06-10 15:55:00,75.0,71.0,27.79,SW,225,0.0,0.0,86,0.00,,,1.03,Rainwise IP-100,2013-06-10 19:55:00,
2013-06-10 16:00:00,75.0,71.0,27.79,SW,225,0.0,0.0,86,0.00,,,1.03,Rainwise IP-100,2013-06-10 20:00:00,
2013-06-10 16:05:00,76.0,73.7,27.77,SSW,202,0.0,0.0,93,0.00,,,1.03,Rainwise IP-100,2013-06-10 20:05:00,
2013-06-10 16:10:00,76.0,74.0,27.77,SW,225,0.0,0.0,94,0.00,,,1.03,Rainwise IP-100,2013-06-10 20:10:00,
2013-06-10 16:15:00,76.0,71.3,27.78,South,180,0.0,0.0,86,0.00,,,1.03,Rainwise IP-100,2013-06-10 20:15:00,
2013-06-10 16:20:00,76.0,53.0,27.78,SE,135,0.0,0.0,44,0.00,,,1.03,Rainwise IP-100,2013-06-10 20:20:00,
2013-06-10 16:25:00,76.0,59.0,27.77,West,270,0.0,0.0,56,0.00,,,1.03,Rainwise IP-100,2013-06-10 20:25:00,
2013-06-10 16:30:00,76.0,59.0,27.77,SW,225,0.0,0.0,55,0.00,,,1.03,Rainwise IP-100,2013-06-10 20:30:00,
2013-06-10 16:35:00,76.0,74.3,27.77,SSW,202,0.0,3.0,95,0.00,,,1.03,Rainwise IP-100,2013-06-10 20:35:00,
2013-06-10 16:40:00,75.0,73.3,27.77,South,180,0.0,3.0,94,0.00,,,1.03,Rainwise IP-100,2013-06-10 20:40:00,
2013-06-10 16:45:00,75.0,73.3,27.77,SW,225,1.0,2.0,94,0.00,,,1.03,Rainwise IP-100,2013-06-10 20:45:00,
2013-06-10 16:50:00,75.0,73.7,27.76,SSW,202,0.0,2.0,95,0.00,,,1.03,Rainwise IP-100,2013-06-10 20:50:00,
2013-06-10 16:55:00,75.0,73.7,27.76,SSW,202,0.0,2.0,95,0.00,,,1.03,Rainwise IP-100,2013-06-10 20:55:00,
2013-06-10 17:00:00,75.0,73.0,27.76,WNW,292,0.0,2.0,93,0.00,,,1.03,Rainwise IP-100,2013-06-10 21:00:00,
2013-06-10 17:05:00,75.0,73.3,27.76,SW,225,0.0,0.0,94,0.00,,,1.03,Rainwise IP-100,2013-06-10 21:05:00,
2013-06-10 17:10:00,75.0,73.3,27.76,SW,225,0.0,0.0,94,0.00,,,1.03,Rainwise IP-100,2013-06-10 21:10:00,
2013-06-10 17:15:00,75.0,73.3,27.76,SW,225,0.0,0.0,94,0.00,,,1.03,Rainwise IP-100,2013-06-10 21:15:00,
2013-06-10 17:20:00,75.0,73.3,27.76,SW,225,0.0,0.0,94,0.00,,,1.03,Rainwise IP-100,2013-06-10 21:20:00,
2013-06-10 17:25:00,75.0,73.7,27.76,SSE,157,0.0,0.0,96,0.00,,,1.03,Rainwise IP-100,2013-06-10 21:25:00,
2013-06-10 17:30:00,75.0,73.7,27.76,SSE,157,0.0,0.0,96,0.00,,,1.03,Rainwise IP-100,2013-06-10 21:30:00,
2013-06-10 17:35:00,75.0,73.7,27.75,West,270,1.0,0.0,96,0.00,,,1.03,Rainwise IP-100,2013-06-10 21:35:00,
2013-06-10 17:40:00,75.0,73.3,27.75,West,270,0.0,2.0,94,0.00,,,1.03,Rainwise IP-100,2013-06-10 21:40:00,
2013-06-10 17:45:00,75.0,73.7,27.76,West,270,0.0,0.0,96,0.00,,,1.03,Rainwise IP-100,2013-06-10 21:45:00,
2013-06-10 17:50:00,74.0,73.0,27.76,East,90,1.0,3.0,96,0.00,,,1.03,Rainwise IP-100,2013-06-10 21:50:00,
2013-06-10 17:55:00,74.0,73.0,27.76,SE,135,1.0,5.0,96,0.00,,,1.03,Rainwise IP-100,2013-06-10 21:55:00,
2013-06-10 18:00:00,73.0,72.3,27.76,SSE,157,0.0,3.0,97,0.00,,,1.03,Rainwise IP-100,2013-06-10 22:00:00,
2013-06-10 18:05:00,73.0,72.0,27.78,South,180,0.0,2.0,96,0.00,,,1.03,Rainwise IP-100,2013-06-10 22:05:00,
2013-06-10 18:10:00,73.0,72.0,27.78,South,180,2.0,3.0,96,0.00,,,1.03,Rainwise IP-100,2013-06-10 22:10:00,
2013-06-10 18:15:00,73.0,72.3,27.77,SW,225,0.0,3.0,97,0.00,,,1.03,Rainwise IP-100,2013-06-10 22:15:00,
2013-06-10 18:20:00,73.0,72.3,27.77,SSE,157,0.0,4.0,97,0.00,,,1.03,Rainwise IP-100,2013-06-10 22:20:00,
2013-06-10 18:25:00,73.0,72.3,27.77,West,270,0.0,4.0,97,0.00,,,1.03,Rainwise IP-100,2013-06-10 22:25:00,
2013-06-10 18:30:00,73.0,72.0,27.77,South,180,0.0,4.0,96,0.00,,,1.03,Rainwise IP-100,2013-06-10 22:30:00,
2013-06-10 18:35:00,73.0,72.3,27.77,SSW,202,0.0,4.0,97,0.00,,,1.03,Rainwise IP-100,2013-06-10 22:35:00,
2013-06-10 18:40:00,73.0,72.0,27.77,South,180,0.0,4.0,96,0.00,,,1.03,Rainwise IP-100,2013-06-10 22:40:00,
2013-06-10 18:45:00,73.0,72.3,27.76,SSE,157,0.0,3.0,97,0.00,,,1.03,Rainwise IP-100,2013-06-10 22:45:00,
2013-06-10 18:50:00,72.0,71.0,27.76,SE,135,0.0,3.0,96,0.00,,,1.03,Rainwise IP-100,2013-06-10 22:50:00,
2013-06-10 18:55:00,72.0,69.7,27.76,SE,135,0.0,0.0,92,0.00,,,1.03,Rainwise IP-100,2013-06-10 22:55:00,
2013-06-10 19:00:00,72.0,70.0,27.76,SW,225,0.0,3.0,94,0.00,,,1.03,Rainwise IP-100,2013-06-10 23:00:00,
2013-06-10 19:05:00,72.0,68.5,27.77,WSW,247,0.0,2.0,89,0.00,,,1.03,Rainwise IP-100,2013-06-10 23:05:00,
2013-06-10 19:10:00,72.0,69.7,27.77,SSE,157,0.0,3.0,93,0.00,,,1.03,Rainwise IP-100,2013-06-10 23:10:00,
2013-06-10 19:15:00,72.0,69.7,27.76,WSW,247,3.0,4.0,92,0.00,,,1.03,Rainwise IP-100,2013-06-10 23:15:00,
2013-06-10 19:20:00,72.0,69.0,27.76,SSE,157,1.0,6.0,90,0.00,,,1.03,Rainwise IP-100,2013-06-10 23:20:00,
2013-06-10 19:25:00,72.0,67.5,27.77,WNW,292,0.0,3.0,86,0.00,,,1.03,Rainwise IP-100,2013-06-10 23:25:00,
2013-06-10 19:30:00,72.0,65.0,27.77,West,270,0.0,3.0,78,0.00,,,1.03,Rainwise IP-100,2013-06-10 23:30:00,
2013-06-10 19:35:00,72.0,65.5,27.76,SSW,202,0.0,2.0,80,0.00,,,1.03,Rainwise IP-100,2013-06-10 23:35:00,
2013-06-10 19:40:00,71.0,62.5,27.76,NW,315,0.0,2.0,75,0.00,,,1.03,Rainwise IP-100,2013-06-10 23:40:00,
2013-06-10 19:45:00,71.0,61.5,27.76,NW,315,0.0,0.0,73,0.00,,,1.03,Rainwise IP-100,2013-06-10 23:45:00,
2013-06-10 19:50:00,71.0,60.5,27.76,South,180,0.0,3.0,70,0.00,,,1.03,Rainwise IP-100,2013-06-10 23:50:00,
2013-06-10 19:55:00,71.0,58.0,27.76,SSW,202,0.0,0.0,64,0.00,,,1.03,Rainwise IP-100,2013-06-10 23:55:00,
2013-06-10 20:00:00,70.0,57.0,27.76,SSE,157,0.0,3.0,63,0.00,,,1.03,Rainwise IP-100,2013-06-11 00:00:00,
2013-06-10 20:05:00,70.0,53.5,27.76,South,180,0.0,1.0,55,0.00,,,1.03,Rainwise IP-100,2013-06-11 00:05:00,
2013-06-10 20:10:00,69.0,54.5,27.76,South,180,0.0,0.0,60,0.00,,,1.03,Rainwise IP-100,2013-06-11 00:10:00,
2013-06-10 20:15:00,69.0,50.0,27.76,SSE,157,0.0,0.0,51,0.00,,,1.03,Rainwise IP-100,2013-06-11 00:15:00,
2013-06-10 20:20:00,69.0,43.0,27.76,SSE,157,0.0,1.0,39,0.00,,,1.03,Rainwise IP-100,2013-06-11 00:20:00,
2013-06-10 20:25:00,69.0,39.0,27.77,SSW,202,0.0,2.0,34,0.00,,,1.03,Rainwise IP-100,2013-06-11 00:25:00,
2013-06-10 20:30:00,69.0,36.0,27.77,SSE,157,2.0,3.0,29,0.00,,,1.03,Rainwise IP-100,2013-06-11 00:30:00,
2013-06-10 20:35:00,69.0,36.0,27.77,SSE,157,2.0,3.0,29,0.00,,,1.03,Rainwise IP-100,2013-06-11 00:35:00,
2013-06-10 20:40:00,69.0,36.0,27.77,SSE,157,2.0,3.0,29,0.00,,,1.03,Rainwise IP-100,2013-06-11 00:40:00,
2013-06-10 20:45:00,69.0,36.0,27.77,SSE,157,2.0,3.0,29,0.00,,,1.03,Rainwise IP-100,2013-06-11 00:45:00,
2013-06-10 20:50:00,67.0,14.0,27.78,South,180,0.0,3.0,12,0.00,,,1.03,Rainwise IP-100,2013-06-11 00:50:00,
2013-06-10 20:55:00,67.0,14.0,27.78,South,180,0.0,0.0,12,0.00,,,1.03,Rainwise IP-100,2013-06-11 00:55:00,
2013-06-10 21:00:00,67.0,14.0,27.78,South,180,0.0,0.0,12,0.00,,,1.03,Rainwise IP-100,2013-06-11 01:00:00,
2013-06-10 21:05:00,67.0,14.0,27.78,South,180,0.0,0.0,12,0.00,,,1.03,Rainwise IP-100,2013-06-11 01:05:00,
2013-06-10 21:10:00,67.0,14.0,27.78,South,180,0.0,0.0,12,0.00,,,1.03,Rainwise IP-100,2013-06-11 01:10:00,
2013-06-10 21:15:00,67.0,14.0,27.78,South,180,0.0,0.0,12,0.00,,,1.03,Rainwise IP-100,2013-06-11 01:15:00,
2013-06-10 21:20:00,67.0,14.0,27.78,South,180,0.0,0.0,12,0.00,,,1.03,Rainwise IP-100,2013-06-11 01:20:00,
2013-06-10 21:25:00,67.0,14.0,27.78,South,180,0.0,0.0,12,0.00,,,1.03,Rainwise IP-100,2013-06-11 01:25:00,
2013-06-10 21:30:00,67.0,14.0,27.78,South,180,0.0,0.0,12,0.00,,,1.03,Rainwise IP-100,2013-06-11 01:30:00,